createdAt,value
2019-02-04T00:00:38.846Z,97752.96
2019-02-04T00:03:34.137Z,97751.25
2019-02-04T00:06:30.726Z,97757.08
2019-02-04T00:09:29.779Z,97759.47
2019-02-04T00:12:26.554Z,97759.97
2019-02-04T00:15:24.705Z,97756.98
2019-02-04T00:18:20.169Z,97761.22
2019-02-04T00:21:16.952Z,97760.63
2019-02-04T00:24:13.401Z,97763.02
2019-02-04T00:27:09.851Z,97770.96
2019-02-04T00:30:05.382Z,97773.27
2019-02-04T00:33:01.920Z,97775.56
2019-02-04T00:35:59.363Z,97773.13
2019-02-04T00:38:55.166Z,97778.30
2019-02-04T00:41:50.215Z,97783.46
2019-02-04T00:44:45.935Z,97782.02
2019-02-04T00:47:43.373Z,97796.00
2019-02-04T00:50:38.916Z,97799.55
2019-02-04T00:53:35.727Z,97797.33
2019-02-04T00:56:33.117Z,97809.78
2019-02-04T00:59:28.636Z,97805.08
2019-02-04T01:02:24.430Z,97813.80
2019-02-04T01:05:21.443Z,97813.15
2019-02-04T01:08:18.360Z,97820.52
2019-02-04T01:11:14.852Z,97825.18
2019-02-04T01:14:12.518Z,97833.30
2019-02-04T01:17:08.008Z,97830.52
2019-02-04T01:20:04.591Z,97834.42
2019-02-04T01:23:02.274Z,97847.69
2019-02-04T01:25:57.152Z,97845.27
2019-02-04T01:28:54.310Z,97851.23
2019-02-04T01:31:49.791Z,97850.76
2019-02-04T01:34:48.953Z,97852.55
2019-02-04T01:37:43.885Z,97858.27
2019-02-04T01:40:40.704Z,97857.33
2019-02-04T01:43:37.431Z,97862.07
2019-02-04T01:46:32.489Z,97866.30
2019-02-04T01:49:29.025Z,97870.71
2019-02-04T01:52:24.534Z,97864.22
2019-02-04T01:55:20.927Z,97864.31
2019-02-04T01:58:17.475Z,97868.66
2019-02-04T02:01:14.169Z,97877.30
2019-02-04T02:04:12.664Z,97875.41
2019-02-04T02:07:08.056Z,97879.71
2019-02-04T02:10:05.859Z,97886.44
2019-02-04T02:13:01.314Z,97885.37
2019-02-04T02:15:58.005Z,97890.81
2019-02-04T02:18:53.436Z,97891.69
2019-02-04T02:21:50.090Z,97891.89
2019-02-04T02:24:45.786Z,97892.67
2019-02-04T02:27:43.269Z,97897.65
2019-02-04T02:30:47.888Z,97892.39
2019-02-04T02:33:43.494Z,97898.39
2019-02-04T02:36:40.013Z,97900.14
2019-02-04T02:39:35.602Z,97898.12
2019-02-04T02:42:32.299Z,97901.95
2019-02-04T02:45:27.606Z,97899.86
2019-02-04T02:48:25.776Z,97897.84
2019-02-04T02:51:20.840Z,97897.20
2019-02-04T02:54:19.343Z,97902.75
2019-02-04T02:57:16.060Z,97902.28
2019-02-04T03:00:11.732Z,97899.29
2019-02-04T03:03:07.225Z,97900.84
2019-02-04T03:06:04.958Z,97901.31
2019-02-04T03:09:01.756Z,97906.30
2019-02-04T03:11:58.336Z,97908.78
2019-02-04T03:14:57.256Z,97914.53
2019-02-04T03:17:52.711Z,97917.67
2019-02-04T03:20:48.516Z,97915.81
2019-02-04T03:23:45.323Z,97921.30
2019-02-04T03:26:41.864Z,97917.56
2019-02-04T03:29:38.331Z,97919.28
2019-02-04T03:32:34.050Z,97921.23
2019-02-04T03:35:31.783Z,97929.95
2019-02-04T03:38:27.299Z,97937.15
2019-02-04T03:41:23.262Z,97939.74
2019-02-04T03:44:18.941Z,97937.63
2019-02-04T03:47:15.637Z,97940.38
2019-02-04T03:50:11.380Z,97943.28
2019-02-04T03:53:07.836Z,97942.87
2019-02-04T03:56:05.303Z,97947.85
2019-02-04T03:59:00.784Z,97946.14
2019-02-04T04:01:57.559Z,97947.11
2019-02-04T04:04:53.405Z,97949.50
2019-02-04T04:07:53.375Z,97958.80
2019-02-04T04:10:46.724Z,97956.30
2019-02-04T04:13:42.986Z,97957.27
2019-02-04T04:16:41.860Z,97961.52
2019-02-04T04:19:38.592Z,97971.25
2019-02-04T04:22:34.745Z,97971.25
2019-02-04T04:25:31.463Z,97979.69
2019-02-04T04:28:27.619Z,97979.69
2019-02-04T04:31:22.627Z,97987.77
2019-02-04T04:34:19.144Z,97989.38
2019-02-04T04:37:15.640Z,97987.40
2019-02-04T04:40:12.396Z,97989.99
2019-02-04T04:43:07.631Z,97985.11
2019-02-04T04:46:03.984Z,97987.23
2019-02-04T04:49:01.822Z,97990.09
2019-02-04T04:51:56.806Z,97992.59
2019-02-04T04:54:52.849Z,97988.48
2019-02-04T04:57:48.293Z,97998.81
2019-02-04T05:00:45.794Z,97995.34
2019-02-04T05:03:41.330Z,98001.09
2019-02-04T05:06:39.107Z,98004.59
2019-02-04T05:09:35.559Z,98004.59
2019-02-04T05:12:32.115Z,98007.09
2019-02-04T05:15:30.882Z,98011.09
2019-02-04T05:18:37.434Z,98016.58
2019-02-04T05:21:24.030Z,98013.22
2019-02-04T05:24:19.738Z,98022.80
2019-02-04T05:27:17.218Z,98024.31
2019-02-04T05:30:13.014Z,98025.56
2019-02-04T05:33:09.550Z,98028.05
2019-02-04T05:36:05.980Z,98024.79
2019-02-04T05:39:01.725Z,98034.48
2019-02-04T05:41:58.827Z,98038.73
2019-02-04T05:44:54.283Z,98044.69
2019-02-04T05:47:50.927Z,98052.16
2019-02-04T05:50:46.788Z,98052.16
2019-02-04T05:53:43.541Z,98053.88
2019-02-04T05:56:40.051Z,98065.86
2019-02-04T05:59:35.721Z,98066.33
2019-02-04T06:02:32.441Z,98073.80
2019-02-04T06:05:28.332Z,98078.02
2019-02-04T06:08:24.434Z,98080.50
2019-02-04T06:11:20.973Z,98071.31
2019-02-04T06:14:17.251Z,98071.31
2019-02-04T06:17:14.171Z,98075.82
2019-02-04T06:20:10.785Z,98076.56
2019-02-04T06:23:06.421Z,98079.31
2019-02-04T06:26:02.872Z,98086.69
2019-02-04T06:28:59.221Z,98085.81
2019-02-04T06:31:54.658Z,98089.28
2019-02-04T06:34:51.109Z,98091.77
2019-02-04T06:37:47.825Z,98100.75
2019-02-04T06:40:44.319Z,98100.75
2019-02-04T06:43:39.777Z,98103.14
2019-02-04T06:46:37.471Z,98103.81
2019-02-04T06:49:33.798Z,98101.18
2019-02-04T06:52:29.453Z,98104.70
2019-02-04T06:55:27.755Z,98106.83
2019-02-04T06:58:22.917Z,98110.05
2019-02-04T07:01:20.953Z,98107.36
2019-02-04T07:04:16.648Z,98105.13
2019-02-04T07:07:15.042Z,98119.35
2019-02-04T07:10:08.279Z,98122.61
2019-02-04T07:13:04.655Z,98122.16
2019-02-04T07:16:01.422Z,98136.14
2019-02-04T07:18:58.262Z,98133.66
2019-02-04T07:21:55.080Z,98132.62
2019-02-04T07:24:50.237Z,98130.08
2019-02-04T07:27:46.988Z,98135.27
2019-02-04T07:30:43.631Z,98133.19
2019-02-04T07:33:39.076Z,98138.53
2019-02-04T07:36:35.139Z,98146.98
2019-02-04T07:39:30.949Z,98145.89
2019-02-04T07:42:27.325Z,98150.52
2019-02-04T07:45:22.730Z,98151.81
2019-02-04T07:48:20.503Z,98145.01
2019-02-04T07:51:17.313Z,98149.11
2019-02-04T07:54:13.875Z,98144.87
2019-02-04T07:57:10.661Z,98146.36
2019-02-04T08:00:07.071Z,98138.84
2019-02-04T08:03:03.557Z,98139.27
2019-02-04T08:05:59.069Z,98139.63
2019-02-04T08:08:56.479Z,98141.18
2019-02-04T08:11:53.011Z,98145.27
2019-02-04T08:14:48.074Z,98143.87
2019-02-04T08:17:44.766Z,98153.06
2019-02-04T08:20:41.545Z,98152.69
2019-02-04T08:23:39.118Z,98148.64
2019-02-04T08:26:34.623Z,98155.69
2019-02-04T08:29:33.114Z,98155.56
2019-02-04T08:32:29.679Z,98158.20
2019-02-04T08:35:30.321Z,98159.51
2019-02-04T08:38:28.795Z,98157.81
2019-02-04T08:41:24.384Z,98155.64
2019-02-04T08:44:20.927Z,98154.09
2019-02-04T08:47:22.633Z,98154.83
2019-02-04T08:50:15.231Z,98160.06
2019-02-04T08:53:12.097Z,98159.65
2019-02-04T08:56:07.501Z,98164.48
2019-02-04T08:59:03.831Z,98170.31
2019-02-04T09:01:59.001Z,98176.41
2019-02-04T09:04:54.978Z,98174.66
2019-02-04T09:07:50.757Z,98175.94
2019-02-04T09:10:49.360Z,98177.91
2019-02-04T09:13:46.005Z,98177.83
2019-02-04T09:16:41.368Z,98186.93
2019-02-04T09:19:39.136Z,98191.30
2019-02-04T09:22:35.914Z,98187.81
2019-02-04T09:25:33.548Z,98185.75
2019-02-04T09:28:29.942Z,98187.19
2019-02-04T09:31:26.281Z,98187.75
2019-02-04T09:34:23.039Z,98190.56
2019-02-04T09:37:18.595Z,98192.02
2019-02-04T09:40:17.189Z,98181.16
2019-02-04T09:43:12.743Z,98189.16
2019-02-04T09:46:09.664Z,98187.97
2019-02-04T09:49:06.522Z,98189.88
2019-02-04T09:52:02.961Z,98188.89
2019-02-04T09:54:59.731Z,98183.22
2019-02-04T09:57:54.525Z,98184.41
2019-02-04T10:00:52.048Z,98180.15
2019-02-04T10:03:47.687Z,98187.36
2019-02-04T10:06:44.203Z,98176.29
2019-02-04T10:09:41.463Z,98172.61
2019-02-04T10:12:36.813Z,98181.28
2019-02-04T10:15:36.125Z,98188.93
2019-02-04T10:18:31.902Z,98170.38
2019-02-04T10:21:28.836Z,98163.87
2019-02-04T10:24:25.394Z,98151.59
2019-02-04T10:27:23.086Z,98150.61
2019-02-04T10:30:21.239Z,98144.03
2019-02-04T10:33:18.138Z,98139.09
2019-02-04T10:36:13.626Z,98141.05
2019-02-04T10:39:10.257Z,98139.64
2019-02-04T10:42:06.847Z,98133.72
2019-02-04T10:45:25.917Z,98128.73
2019-02-04T10:48:21.657Z,98124.34
2019-02-04T10:51:18.183Z,98125.50
2019-02-04T10:54:14.682Z,98122.35
2019-02-04T10:57:11.462Z,98127.56
2019-02-04T11:00:07.930Z,98120.63
2019-02-04T11:03:08.673Z,98119.28
2019-02-04T11:06:05.603Z,98112.76
2019-02-04T11:09:06.912Z,98111.61
2019-02-04T11:12:05.607Z,98111.05
2019-02-04T11:15:09.274Z,98116.63
2019-02-04T11:18:06.002Z,98106.71
2019-02-04T11:21:04.270Z,98110.09
2019-02-04T11:24:00.596Z,98110.67
2019-02-04T11:26:57.279Z,98107.48
2019-02-04T11:29:53.794Z,98097.58
2019-02-04T11:32:51.422Z,98105.58
2019-02-04T11:35:46.648Z,98097.40
2019-02-04T11:38:43.180Z,98095.95
2019-02-04T11:41:40.992Z,98097.76
2019-02-04T11:44:36.482Z,98095.73
2019-02-04T11:47:32.959Z,98094.02
2019-02-04T11:50:28.677Z,98090.56
2019-02-04T11:53:33.147Z,98089.39
2019-02-04T11:56:22.981Z,98086.61
2019-02-04T11:59:19.504Z,98078.53
2019-02-04T12:02:16.957Z,98069.38
2019-02-04T12:05:13.410Z,98065.91
2019-02-04T12:08:08.968Z,98059.66
2019-02-04T12:11:18.872Z,98060.41
2019-02-04T12:14:14.458Z,98047.73
2019-02-04T12:17:11.238Z,98050.05
2019-02-04T12:20:06.942Z,98045.62
2019-02-04T12:23:05.571Z,98044.49
2019-02-04T12:26:00.810Z,98052.95
2019-02-04T12:28:58.059Z,98044.27
2019-02-04T12:31:54.682Z,98043.52
2019-02-04T12:34:51.212Z,98034.44
2019-02-04T12:37:46.737Z,98033.86
2019-02-04T12:40:42.838Z,98032.72
2019-02-04T12:43:39.510Z,98029.08
2019-02-04T12:46:36.523Z,98029.84
2019-02-04T12:49:33.132Z,98033.51
2019-02-04T12:52:29.210Z,98027.52
2019-02-04T12:55:28.896Z,98028.19
2019-02-04T12:58:24.425Z,98026.76
2019-02-04T13:01:21.167Z,98029.44
2019-02-04T13:04:18.754Z,98028.30
2019-02-04T13:07:17.539Z,98029.95
2019-02-04T13:10:13.108Z,98025.05
2019-02-04T13:13:10.880Z,98019.25
2019-02-04T13:16:06.788Z,98019.25
2019-02-04T13:19:03.141Z,98018.50
2019-02-04T13:22:00.493Z,98025.51
2019-02-04T13:24:55.868Z,98024.08
2019-02-04T13:27:52.767Z,98016.87
2019-02-04T13:30:49.952Z,98013.41
2019-02-04T13:33:48.575Z,98002.53
2019-02-04T13:36:45.378Z,98003.49
2019-02-04T13:39:40.756Z,97993.66
2019-02-04T13:42:38.055Z,97999.25
2019-02-04T13:45:34.908Z,98001.08
2019-02-04T13:48:31.464Z,98007.81
2019-02-04T13:51:26.526Z,98002.55
2019-02-04T13:54:24.030Z,98005.34
2019-02-04T13:57:21.051Z,97994.00
2019-02-04T14:00:17.796Z,97991.30
2019-02-04T14:03:17.660Z,97987.64
2019-02-04T14:06:10.752Z,97978.33
2019-02-04T14:09:06.925Z,97981.01
2019-02-04T14:12:01.672Z,97973.33
2019-02-04T14:14:58.762Z,97967.55
2019-02-04T14:17:54.499Z,97959.08
2019-02-04T14:20:51.020Z,97954.08
2019-02-04T14:23:47.658Z,97957.37
2019-02-04T14:26:43.492Z,97956.41
2019-02-04T14:29:39.902Z,97951.41
2019-02-04T14:32:36.729Z,97950.63
2019-02-04T14:35:34.413Z,97948.70
2019-02-04T14:38:30.060Z,97942.66
2019-02-04T14:41:26.845Z,97944.66
2019-02-04T14:44:38.949Z,97937.77
2019-02-04T14:47:48.862Z,97937.57
2019-02-04T14:51:10.912Z,97931.98
2019-02-04T14:54:38.093Z,97926.61
2019-02-04T14:58:02.909Z,97927.77
2019-02-04T15:01:26.868Z,97914.43
2019-02-04T15:04:47.717Z,97908.56
2019-02-04T15:08:14.926Z,97903.77
2019-02-04T15:11:36.194Z,97898.06
2019-02-04T15:15:15.183Z,97895.59
2019-02-04T15:18:35.387Z,97890.89
2019-02-04T15:21:59.430Z,97888.55
2019-02-04T15:25:36.025Z,97880.30
2019-02-04T15:28:59.945Z,97873.27
2019-02-04T15:32:39.643Z,97864.85
2019-02-04T15:36:17.674Z,97867.36
2019-02-04T15:39:31.015Z,97870.80
2019-02-04T15:42:47.499Z,97883.64
2019-02-04T15:46:13.267Z,97885.41
2019-02-04T15:49:30.249Z,97891.38
2019-02-04T15:52:25.976Z,97900.04
2019-02-04T15:55:24.498Z,97891.77
2019-02-04T15:58:20.266Z,97889.37
2019-02-04T16:01:18.195Z,97885.23
2019-02-04T16:04:14.971Z,97891.56
2019-02-04T16:07:10.511Z,97885.43
2019-02-04T16:10:07.083Z,97891.77
2019-02-04T16:13:01.628Z,97897.14
2019-02-04T16:15:58.182Z,97891.38
2019-02-04T16:18:53.621Z,97895.59
2019-02-04T16:21:50.150Z,97896.92
2019-02-04T16:24:45.966Z,97901.52
2019-02-04T16:27:43.532Z,97902.66
2019-02-04T16:30:40.972Z,97905.99
2019-02-04T16:33:36.772Z,97911.44
2019-02-04T16:36:34.562Z,97918.73
2019-02-04T16:39:31.801Z,97916.89
2019-02-04T16:42:28.555Z,97923.58
2019-02-04T16:45:25.339Z,97921.55
2019-02-04T16:48:21.751Z,97917.14
2019-02-04T16:51:18.342Z,97918.56
2019-02-04T16:54:14.111Z,97923.33
2019-02-04T16:57:11.641Z,97925.25
2019-02-04T17:00:08.397Z,97927.05
2019-02-04T17:03:04.969Z,97924.36
2019-02-04T17:06:01.737Z,97928.74
2019-02-04T17:08:57.599Z,97937.47
2019-02-04T17:11:54.154Z,97940.14
2019-02-04T17:14:50.002Z,97931.96
2019-02-04T17:17:47.969Z,97935.77
2019-02-04T17:20:45.793Z,97938.34
2019-02-04T17:23:42.679Z,97942.63
2019-02-04T17:26:38.217Z,97943.94
2019-02-04T17:29:33.858Z,97947.67
2019-02-04T17:32:30.635Z,97951.21
2019-02-04T17:35:26.156Z,97950.78
2019-02-04T17:38:24.005Z,97947.11
2019-02-04T17:41:19.561Z,97951.76
2019-02-04T17:44:16.408Z,97954.98
2019-02-04T17:47:12.216Z,97950.81
2019-02-04T17:50:08.989Z,97957.84
2019-02-04T17:53:05.795Z,97947.58
2019-02-04T17:56:00.185Z,97944.55
2019-02-04T17:58:57.073Z,97946.62
2019-02-04T18:01:53.549Z,97949.91
2019-02-04T18:04:51.287Z,97949.78
2019-02-04T18:07:48.813Z,97950.87
2019-02-04T18:10:44.617Z,97960.11
2019-02-04T18:13:40.823Z,97960.43
2019-02-04T18:16:36.358Z,97963.02
2019-02-04T18:19:32.500Z,97962.10
2019-02-04T18:22:28.356Z,97958.94
2019-02-04T18:25:24.972Z,97964.52
2019-02-04T18:28:20.460Z,97962.42
2019-02-04T18:31:17.505Z,97959.36
2019-02-04T18:34:14.188Z,97958.26
2019-02-04T18:37:10.459Z,97967.98
2019-02-04T18:40:08.759Z,97967.98
2019-02-04T18:43:03.713Z,97967.25
2019-02-04T18:46:00.041Z,97967.25
2019-02-04T18:48:57.855Z,97973.20
2019-02-04T18:51:53.472Z,97985.88
2019-02-04T18:54:50.248Z,97985.66
2019-02-04T18:57:46.880Z,97985.88
2019-02-04T19:00:43.056Z,97980.98
2019-02-04T19:03:39.739Z,97987.30
2019-02-04T19:06:47.151Z,97986.79
2019-02-04T19:09:31.884Z,97985.30
2019-02-04T19:12:27.469Z,97971.38
2019-02-04T19:15:25.994Z,97975.83
2019-02-04T19:18:26.769Z,97981.31
2019-02-04T19:21:23.315Z,97974.33
2019-02-04T19:24:21.038Z,97971.84
2019-02-04T19:27:16.721Z,97972.58
2019-02-04T19:30:13.136Z,97984.13
2019-02-04T19:33:08.630Z,97975.42
2019-02-04T19:36:05.329Z,97968.59
2019-02-04T19:39:02.777Z,97973.41
2019-02-04T19:42:03.208Z,97967.66
2019-02-04T19:44:59.999Z,97966.02
2019-02-04T19:47:56.878Z,97962.76
2019-02-04T19:50:53.628Z,97963.95
2019-02-04T19:53:50.442Z,97965.41
2019-02-04T19:56:47.137Z,97964.47
2019-02-04T19:59:45.162Z,97961.21
2019-02-04T20:02:40.742Z,97961.42
2019-02-04T20:05:37.352Z,97957.33
2019-02-04T20:08:32.704Z,97954.95
2019-02-04T20:11:29.411Z,97959.92
2019-02-04T20:14:26.083Z,97950.08
2019-02-04T20:17:22.809Z,97952.92
2019-02-04T20:20:18.834Z,97958.79
2019-02-04T20:23:16.038Z,97973.13
2019-02-04T20:26:13.055Z,97966.40
2019-02-04T20:29:09.879Z,97968.15
2019-02-04T20:32:07.002Z,97961.67
2019-02-04T20:35:02.058Z,97963.17
2019-02-04T20:37:58.839Z,97962.41
2019-02-04T20:41:01.594Z,97962.20
2019-02-04T20:44:03.448Z,97957.01
2019-02-04T20:47:01.283Z,97959.25
2019-02-04T20:49:58.232Z,97957.74
2019-02-04T20:52:55.331Z,97954.53
2019-02-04T20:55:54.295Z,97959.55
2019-02-04T20:58:52.353Z,97966.75
2019-02-04T21:01:50.260Z,97976.32
2019-02-04T21:04:47.304Z,97985.91
2019-02-04T21:07:45.020Z,97990.14
2019-02-04T21:10:41.727Z,97984.30
2019-02-04T21:13:38.701Z,97985.17
2019-02-04T21:16:34.842Z,97978.12
2019-02-04T21:19:31.378Z,97974.08
2019-02-04T21:22:27.260Z,97979.00
2019-02-04T21:25:24.021Z,97980.40
2019-02-04T21:28:21.160Z,97987.02
2019-02-04T21:31:18.798Z,97995.23
2019-02-04T21:34:15.220Z,97989.89
2019-02-04T21:37:10.495Z,97988.25
2019-02-04T21:40:07.144Z,97992.75
2019-02-04T21:43:02.032Z,97985.81
2019-02-04T21:45:58.767Z,97992.05
2019-02-04T21:48:55.600Z,97999.39
2019-02-04T21:51:51.379Z,98001.06
2019-02-04T21:54:49.995Z,98003.44
2019-02-04T21:57:45.731Z,98001.35
2019-02-04T22:00:45.380Z,98002.91
2019-02-04T22:03:41.974Z,97994.47
2019-02-04T22:06:38.591Z,97993.70
2019-02-04T22:09:36.360Z,97990.23
2019-02-04T22:12:32.066Z,97991.96
2019-02-04T22:15:28.615Z,98001.86
2019-02-04T22:18:24.032Z,97998.92
2019-02-04T22:21:20.162Z,97998.95
2019-02-04T22:24:15.810Z,97997.70
2019-02-04T22:27:12.648Z,97988.27
2019-02-04T22:30:08.269Z,97986.26
2019-02-04T22:33:04.374Z,97983.55
2019-02-04T22:36:00.957Z,97990.34
2019-02-04T22:38:55.553Z,97995.96
2019-02-04T22:41:53.181Z,97996.84
2019-02-04T22:44:48.752Z,97999.94
2019-02-04T22:47:45.358Z,97997.23
2019-02-04T22:50:43.848Z,97993.51
2019-02-04T22:53:40.393Z,97991.02
2019-02-04T22:56:37.724Z,98003.70
2019-02-04T22:59:33.028Z,97997.32
2019-02-04T23:02:30.831Z,97993.36
2019-02-04T23:05:26.567Z,97990.13
2019-02-04T23:08:23.043Z,97988.05
2019-02-04T23:11:20.872Z,97989.45
2019-02-04T23:14:17.459Z,97982.16
2019-02-04T23:17:14.009Z,97981.30
2019-02-04T23:20:08.752Z,97978.33
2019-02-04T23:23:05.773Z,97968.64
2019-02-04T23:26:01.269Z,97970.16
2019-02-04T23:28:58.139Z,97978.09
2019-02-04T23:31:54.983Z,97968.90
2019-02-04T23:34:51.781Z,97970.14
2019-02-04T23:37:48.479Z,97976.10
2019-02-04T23:40:43.804Z,97984.55
2019-02-04T23:43:40.546Z,97983.93
2019-02-04T23:46:37.104Z,97977.61
2019-02-04T23:49:33.654Z,97976.36
2019-02-04T23:52:32.240Z,97983.31
2019-02-04T23:55:27.694Z,97986.75
2019-02-04T23:58:24.451Z,97982.67
